createdAt,value
2022-08-24T00:02:06.057Z,19.36
2022-08-24T00:05:12.775Z,19.38
2022-08-24T00:08:18.994Z,19.31
2022-08-24T00:11:22.214Z,19.29
2022-08-24T00:14:25.189Z,19.32
2022-08-24T00:17:27.656Z,19.34
2022-08-24T00:20:30.527Z,19.29
2022-08-24T00:23:33.473Z,19.30
2022-08-24T00:26:35.828Z,19.25
2022-08-24T00:29:38.811Z,19.23
2022-08-24T00:32:42.167Z,19.25
2022-08-24T00:35:44.698Z,19.19
2022-08-24T00:38:46.796Z,19.17
2022-08-24T00:41:51.295Z,19.18
2022-08-24T00:44:53.407Z,19.19
2022-08-24T00:48:03.200Z,19.18
2022-08-24T00:51:20.232Z,19.14
2022-08-24T00:54:26.977Z,19.13
2022-08-24T00:57:33.739Z,19.07
2022-08-24T01:00:41.944Z,19.01
2022-08-24T01:03:49.957Z,19.02
2022-08-24T01:06:53.805Z,19.01
2022-08-24T01:10:00.302Z,19.06
2022-08-24T01:13:06.851Z,19.01
2022-08-24T01:16:09.938Z,19.00
2022-08-24T01:19:30.558Z,18.99
2022-08-24T01:23:11.087Z,19.00
2022-08-24T01:26:22.615Z,18.98
2022-08-24T01:29:28.781Z,18.93
2022-08-24T01:32:33.434Z,18.90
2022-08-24T01:35:38.921Z,18.86
2022-08-24T01:38:43.279Z,18.78
2022-08-24T01:41:45.558Z,18.80
2022-08-24T01:44:48.247Z,18.79
2022-08-24T01:47:50.659Z,18.84
2022-08-24T01:50:53.305Z,18.82
2022-08-24T01:53:56.712Z,18.79
2022-08-24T01:57:00.363Z,18.80
2022-08-24T02:00:06.632Z,18.77
2022-08-24T02:03:14.908Z,18.74
2022-08-24T02:06:19.838Z,18.66
2022-08-24T02:09:22.284Z,18.61
2022-08-24T02:12:27.412Z,18.63
2022-08-24T02:15:39.927Z,18.64
2022-08-24T02:18:43.107Z,18.59
2022-08-24T02:21:46.382Z,18.57
2022-08-24T02:24:48.566Z,18.56
2022-08-24T02:27:51.675Z,18.55
2022-08-24T02:30:53.849Z,18.54
2022-08-24T02:33:56.615Z,18.55
2022-08-24T02:36:59.880Z,18.53
2022-08-24T02:40:04.679Z,18.50
2022-08-24T02:43:08.269Z,18.42
2022-08-24T02:46:18.402Z,18.40
2022-08-24T02:49:22.982Z,18.37
2022-08-24T02:52:25.579Z,18.33
2022-08-24T02:55:27.975Z,18.31
2022-08-24T02:58:30.731Z,18.30
2022-08-24T03:01:33.203Z,18.23
2022-08-24T03:04:35.633Z,18.21
2022-08-24T03:07:38.586Z,18.26
2022-08-24T03:10:41.121Z,18.28
2022-08-24T03:13:43.549Z,18.22
2022-08-24T03:16:45.961Z,18.23
2022-08-24T03:19:48.272Z,18.24
2022-08-24T03:22:51.636Z,18.27
2022-08-24T03:25:54.488Z,18.25
2022-08-24T03:28:57.018Z,18.28
2022-08-24T03:32:01.568Z,18.30
2022-08-24T03:35:05.390Z,18.27
2022-08-24T03:38:07.778Z,18.24
2022-08-24T03:41:11.139Z,18.20
2022-08-24T03:44:13.301Z,18.20
2022-08-24T03:47:15.848Z,18.23
2022-08-24T03:50:18.515Z,18.20
2022-08-24T03:53:21.072Z,18.14
2022-08-24T03:56:23.423Z,18.17
2022-08-24T03:59:26.038Z,18.17
2022-08-24T04:02:32.796Z,18.13
2022-08-24T04:05:37.254Z,18.05
2022-08-24T04:08:43.042Z,18.06
2022-08-24T04:11:46.028Z,18.09
2022-08-24T04:14:52.086Z,18.13
2022-08-24T04:17:54.501Z,18.19
2022-08-24T04:20:56.918Z,18.20
2022-08-24T04:24:00.574Z,18.19
2022-08-24T04:27:02.887Z,18.22
2022-08-24T04:30:06.565Z,18.22
2022-08-24T04:33:12.795Z,18.21
2022-08-24T04:36:16.503Z,18.18
2022-08-24T04:39:18.833Z,18.18
2022-08-24T04:42:22.315Z,18.24
2022-08-24T04:45:26.450Z,18.21
2022-08-24T04:48:29.562Z,18.23
2022-08-24T04:51:36.368Z,18.22
2022-08-24T04:54:39.548Z,18.28
2022-08-24T04:57:41.995Z,18.26
2022-08-24T05:00:45.617Z,18.24
2022-08-24T05:03:50.179Z,18.28
2022-08-24T05:06:53.241Z,18.34
2022-08-24T05:09:56.613Z,18.37
2022-08-24T05:13:01.472Z,18.41
2022-08-24T05:16:14.797Z,18.44
2022-08-24T05:19:17.288Z,18.49
2022-08-24T05:22:19.524Z,18.53
2022-08-24T05:25:22.398Z,18.57
2022-08-24T05:28:24.501Z,18.61
2022-08-24T05:31:32.242Z,18.65
2022-08-24T05:34:35.063Z,18.72
2022-08-24T05:37:39.454Z,18.75
2022-08-24T05:40:44.556Z,18.84
2022-08-24T05:43:47.618Z,18.89
2022-08-24T05:46:50.092Z,18.99
2022-08-24T05:49:53.658Z,19.08
2022-08-24T05:52:55.884Z,19.19
2022-08-24T05:55:58.342Z,19.28
2022-08-24T05:59:00.685Z,19.37
2022-08-24T06:02:03.996Z,19.45
2022-08-24T06:05:06.724Z,19.55
2022-08-24T06:08:10.472Z,19.68
2022-08-24T06:11:30.243Z,19.83
2022-08-24T06:14:34.537Z,20.00
2022-08-24T06:17:38.052Z,20.39
2022-08-24T06:20:42.329Z,20.45
2022-08-24T06:23:45.754Z,20.55
2022-08-24T06:27:06.611Z,20.63
2022-08-24T06:30:10.182Z,20.76
2022-08-24T06:33:16.094Z,20.87
2022-08-24T06:36:18.711Z,21.05
2022-08-24T06:39:24.856Z,21.20
2022-08-24T06:42:29.376Z,21.37
2022-08-24T06:45:34.328Z,21.44
2022-08-24T06:48:36.879Z,21.72
2022-08-24T06:51:40.438Z,21.78
2022-08-24T06:54:43.141Z,21.75
2022-08-24T06:57:49.088Z,21.80
2022-08-24T07:00:57.088Z,21.91
2022-08-24T07:03:59.722Z,21.99
2022-08-24T07:07:03.441Z,22.03
2022-08-24T07:10:09.293Z,22.14
2022-08-24T07:13:13.653Z,22.36
2022-08-24T07:16:18.125Z,22.53
2022-08-24T07:19:20.849Z,22.60
2022-08-24T07:22:23.328Z,22.70
2022-08-24T07:25:26.110Z,22.83
2022-08-24T07:28:32.017Z,22.83
2022-08-24T07:31:37.930Z,22.88
2022-08-24T07:34:40.416Z,22.98
2022-08-24T07:37:43.093Z,23.04
2022-08-24T07:41:09.725Z,23.02
2022-08-24T07:44:13.312Z,23.17
2022-08-24T07:47:37.045Z,23.38
2022-08-24T07:50:39.156Z,23.73
2022-08-24T07:53:53.385Z,24.06
2022-08-24T07:56:59.669Z,24.11
2022-08-24T08:00:02.868Z,24.32
2022-08-24T08:03:16.711Z,24.70
2022-08-24T08:06:19.975Z,25.08
2022-08-24T08:09:22.922Z,25.44
2022-08-24T08:12:25.574Z,25.76
2022-08-24T08:15:29.356Z,25.67
2022-08-24T08:18:32.836Z,25.75
2022-08-24T08:22:03.888Z,25.76
2022-08-24T08:25:08.074Z,25.61
2022-08-24T08:28:25.313Z,25.72
2022-08-24T08:31:28.956Z,25.70
2022-08-24T08:34:31.494Z,25.50
2022-08-24T08:41:02.671Z,25.31
2022-08-24T08:44:17.439Z,25.34
2022-08-24T08:47:43.743Z,25.50
2022-08-24T08:50:47.631Z,26.03
2022-08-24T08:54:19.398Z,26.56
2022-08-24T08:58:04.871Z,26.56
2022-08-24T09:01:46.993Z,26.81
2022-08-24T09:05:27.515Z,28.08
2022-08-24T09:08:57.311Z,28.46
2022-08-24T09:12:28.038Z,28.77
2022-08-24T09:15:35.221Z,29.00
2022-08-24T09:18:51.847Z,28.89
2022-08-24T09:22:12.383Z,29.19
2022-08-24T09:25:24.774Z,29.70
2022-08-24T09:28:44.637Z,30.09
2022-08-24T09:32:09.402Z,30.21
2022-08-24T09:35:26.333Z,29.96
2022-08-24T09:38:47.543Z,29.83
2022-08-24T09:42:14.332Z,29.44
2022-08-24T09:45:39.111Z,29.04
2022-08-24T09:48:53.349Z,28.50
2022-08-24T09:52:04.770Z,28.33
2022-08-24T09:55:16.292Z,28.79
2022-08-24T09:58:31.052Z,28.83
2022-08-24T10:01:49.077Z,29.04
2022-08-24T10:05:00.650Z,28.91
2022-08-24T10:08:21.661Z,28.94
2022-08-24T10:11:52.275Z,28.68
2022-08-24T10:15:05.478Z,28.47
2022-08-24T10:18:17.764Z,28.15
2022-08-24T10:21:40.030Z,27.83
2022-08-24T10:25:02.903Z,27.59
2022-08-24T10:28:16.906Z,27.67
2022-08-24T10:31:35.546Z,27.53
2022-08-24T10:35:12.490Z,27.46
2022-08-24T10:38:47.880Z,27.21
2022-08-24T10:42:53.565Z,27.10
2022-08-24T10:46:33.635Z,27.17
2022-08-24T10:50:00.674Z,27.09
2022-08-24T10:53:27.844Z,27.08
2022-08-24T10:57:02.334Z,26.98
2022-08-24T11:00:20.311Z,26.81
2022-08-24T11:03:28.110Z,26.68
2022-08-24T11:06:37.135Z,26.57
2022-08-24T11:09:56.323Z,26.46
2022-08-24T11:13:21.289Z,26.42
2022-08-24T11:16:26.359Z,26.53
2022-08-24T11:19:35.596Z,26.54
2022-08-24T11:22:57.843Z,26.59
2022-08-24T11:26:18.661Z,26.61
2022-08-24T11:29:21.188Z,26.55
2022-08-24T11:32:45.890Z,26.57
2022-08-24T11:35:48.094Z,26.61
2022-08-24T11:39:11.611Z,26.51
2022-08-24T11:42:29.675Z,26.54
2022-08-24T11:45:43.420Z,26.26
2022-08-24T11:48:51.902Z,25.93
2022-08-24T11:52:11.690Z,25.74
2022-08-24T11:55:57.172Z,25.47
2022-08-24T11:59:33.707Z,25.18
2022-08-24T12:02:38.796Z,25.00
2022-08-24T12:05:49.214Z,24.93
2022-08-24T12:09:09.983Z,24.80
2022-08-24T12:12:43.345Z,24.72
2022-08-24T12:16:28.535Z,24.69
2022-08-24T12:19:35.626Z,24.82
2022-08-24T12:22:39.942Z,24.90
2022-08-24T12:26:03.460Z,25.04
2022-08-24T12:29:20.881Z,25.34
2022-08-24T12:32:44.087Z,25.49
2022-08-24T12:35:49.734Z,25.53
2022-08-24T12:39:05.181Z,25.47
2022-08-24T12:42:16.899Z,25.34
2022-08-24T12:45:21.250Z,25.29
2022-08-24T12:48:29.007Z,25.15
2022-08-24T12:51:53.413Z,25.07
2022-08-24T12:55:28.802Z,25.09
2022-08-24T12:58:54.054Z,25.07
2022-08-24T13:02:08.148Z,25.03
2022-08-24T13:05:22.727Z,25.12
2022-08-24T13:08:38.258Z,25.06
2022-08-24T13:11:44.327Z,25.06
2022-08-24T13:14:50.774Z,25.05
2022-08-24T13:18:09.205Z,24.99
2022-08-24T13:21:33.661Z,24.76
2022-08-24T13:24:35.996Z,24.52
2022-08-24T13:27:38.022Z,24.29
2022-08-24T13:31:09.676Z,24.12
2022-08-24T13:34:15.159Z,24.04
2022-08-24T13:37:23.422Z,23.94
2022-08-24T13:40:27.960Z,23.87
2022-08-24T13:43:51.606Z,23.86
2022-08-24T13:47:05.176Z,23.84
2022-08-24T13:50:10.890Z,23.82
2022-08-24T13:53:46.631Z,23.78
2022-08-24T13:57:21.529Z,23.68
2022-08-24T14:00:29.673Z,23.65
2022-08-24T14:04:05.784Z,23.64
2022-08-24T14:07:31.561Z,23.64
2022-08-24T14:10:44.480Z,23.62
2022-08-24T14:14:03.179Z,23.63
2022-08-24T14:17:47.293Z,23.62
2022-08-24T14:20:58.647Z,23.68
2022-08-24T14:24:21.235Z,23.68
2022-08-24T14:27:47.261Z,23.62
2022-08-24T14:31:18.523Z,23.61
2022-08-24T14:34:41.981Z,23.55
2022-08-24T14:38:13.460Z,23.57
2022-08-24T14:41:40.193Z,23.57
2022-08-24T14:44:51.783Z,23.52
2022-08-24T14:48:02.608Z,23.47
2022-08-24T14:51:33.123Z,23.38
2022-08-24T14:55:04.209Z,23.40
2022-08-24T14:58:21.023Z,23.39
2022-08-24T15:01:39.684Z,23.32
2022-08-24T15:04:47.060Z,23.36
2022-08-24T15:07:55.985Z,23.43
2022-08-24T15:11:07.421Z,23.52
2022-08-24T15:14:22.408Z,23.46
2022-08-24T15:17:35.799Z,23.48
2022-08-24T15:20:56.335Z,23.46
2022-08-24T15:24:10.170Z,23.47
2022-08-24T15:27:43.479Z,23.47
2022-08-24T15:30:55.828Z,23.47
2022-08-24T15:34:02.074Z,23.52
2022-08-24T15:37:04.834Z,23.50
2022-08-24T15:40:26.877Z,23.52
2022-08-24T15:43:29.402Z,23.56
2022-08-24T15:46:37.200Z,23.55
2022-08-24T15:49:58.110Z,23.47
2022-08-24T15:53:02.014Z,23.51
2022-08-24T15:56:41.402Z,23.44
2022-08-24T15:59:43.445Z,23.42
2022-08-24T16:02:45.976Z,23.47
2022-08-24T16:05:51.190Z,23.48
2022-08-24T16:09:13.169Z,23.46
2022-08-24T16:12:22.856Z,23.40
2022-08-24T16:15:25.111Z,23.39
2022-08-24T16:18:42.638Z,23.39
2022-08-24T16:22:06.639Z,23.39
2022-08-24T16:25:25.337Z,23.40
2022-08-24T16:28:27.426Z,23.43
2022-08-24T16:31:41.631Z,23.43
2022-08-24T16:34:47.421Z,23.39
2022-08-24T16:37:52.027Z,23.50
2022-08-24T16:40:56.971Z,23.47
2022-08-24T16:43:59.826Z,23.40
2022-08-24T16:47:01.938Z,23.41
2022-08-24T16:50:07.205Z,23.38
2022-08-24T16:53:10.364Z,23.34
2022-08-24T16:56:16.542Z,23.30
2022-08-24T16:59:27.102Z,23.41
2022-08-24T17:02:29.633Z,23.50
2022-08-24T17:05:32.511Z,23.48
2022-08-24T17:08:34.882Z,23.58
2022-08-24T17:11:37.155Z,23.64
2022-08-24T17:14:39.633Z,23.55
2022-08-24T17:17:53.140Z,23.53
2022-08-24T17:20:55.551Z,23.50
2022-08-24T17:23:57.713Z,23.53
2022-08-24T17:27:01.070Z,23.42
2022-08-24T17:30:05.987Z,23.36
2022-08-24T17:33:08.723Z,23.32
2022-08-24T17:36:15.414Z,23.30
2022-08-24T17:39:18.670Z,23.29
2022-08-24T17:42:40.294Z,23.35
2022-08-24T17:45:43.667Z,23.33
2022-08-24T17:48:47.330Z,23.24
2022-08-24T17:51:50.040Z,23.30
2022-08-24T17:54:52.357Z,23.13
2022-08-24T17:57:54.786Z,23.04
2022-08-24T18:00:56.996Z,22.96
2022-08-24T18:03:59.460Z,22.87
2022-08-24T18:07:07.733Z,22.92
2022-08-24T18:10:19.991Z,22.87
2022-08-24T18:13:22.118Z,22.82
2022-08-24T18:16:27.470Z,22.79
2022-08-24T18:19:32.332Z,22.76
2022-08-24T18:22:34.715Z,22.85
2022-08-24T18:25:42.376Z,22.81
2022-08-24T18:28:44.911Z,22.79
2022-08-24T18:31:47.667Z,22.71
2022-08-24T18:34:50.307Z,22.68
2022-08-24T18:37:52.436Z,22.69
2022-08-24T18:40:54.837Z,22.61
2022-08-24T18:43:56.980Z,22.65
2022-08-24T18:46:59.785Z,22.71
2022-08-24T18:50:01.939Z,22.64
2022-08-24T18:53:04.726Z,22.56
2022-08-24T18:56:11.810Z,22.48
2022-08-24T18:59:17.330Z,22.46
2022-08-24T19:02:33.367Z,22.42
2022-08-24T19:05:36.022Z,22.41
2022-08-24T19:08:38.141Z,22.39
2022-08-24T19:11:40.707Z,22.36
2022-08-24T19:14:46.384Z,22.43
2022-08-24T19:17:49.170Z,22.38
2022-08-24T19:20:54.508Z,22.29
2022-08-24T19:23:58.430Z,22.24
2022-08-24T19:27:01.801Z,22.23
2022-08-24T19:30:05.415Z,22.19
2022-08-24T19:33:11.968Z,22.15
2022-08-24T19:36:17.054Z,22.13
2022-08-24T19:39:19.195Z,22.10
2022-08-24T19:42:28.016Z,22.15
2022-08-24T19:45:49.425Z,22.16
2022-08-24T19:48:51.910Z,22.26
2022-08-24T19:51:54.513Z,22.15
2022-08-24T19:54:58.304Z,22.07
2022-08-24T19:58:09.302Z,22.03
2022-08-24T20:01:18.633Z,21.97
2022-08-24T20:04:21.214Z,21.94
2022-08-24T20:07:23.402Z,21.96
2022-08-24T20:10:26.471Z,21.89
2022-08-24T20:13:28.892Z,21.92
2022-08-24T20:16:38.072Z,21.83
2022-08-24T20:19:40.480Z,21.85
2022-08-24T20:22:43.773Z,21.83
2022-08-24T20:25:46.324Z,21.75
2022-08-24T20:28:51.606Z,21.70
2022-08-24T20:31:56.419Z,21.70
2022-08-24T20:34:59.945Z,21.66
2022-08-24T20:38:02.918Z,21.56
2022-08-24T20:41:05.466Z,21.51
2022-08-24T20:44:09.194Z,21.48
2022-08-24T20:47:13.091Z,21.43
2022-08-24T20:50:17.955Z,21.39
2022-08-24T20:53:20.380Z,21.36
2022-08-24T20:56:31.363Z,21.34
2022-08-24T20:59:35.252Z,21.29
2022-08-24T21:02:40.233Z,21.25
2022-08-24T21:05:43.507Z,21.25
2022-08-24T21:08:48.089Z,21.16
2022-08-24T21:11:50.618Z,21.24
2022-08-24T21:14:52.848Z,21.28
2022-08-24T21:17:55.214Z,21.22
2022-08-24T21:21:03.488Z,21.20
2022-08-24T21:24:07.759Z,21.16
2022-08-24T21:27:10.566Z,21.08
2022-08-24T21:30:17.592Z,21.13
2022-08-24T21:33:38.297Z,21.14
2022-08-24T21:36:41.464Z,21.10
2022-08-24T21:39:46.565Z,21.08
2022-08-24T21:42:49.656Z,21.02
2022-08-24T21:45:52.084Z,20.90
2022-08-24T21:48:54.505Z,20.94
2022-08-24T21:51:56.673Z,20.99
2022-08-24T21:54:59.472Z,20.96
2022-08-24T21:58:01.623Z,20.92
2022-08-24T22:01:04.136Z,20.89
2022-08-24T22:04:06.938Z,20.86
2022-08-24T22:07:09.299Z,20.85
2022-08-24T22:10:12.607Z,20.81
2022-08-24T22:13:14.759Z,20.73
2022-08-24T22:16:18.036Z,20.73
2022-08-24T22:19:20.205Z,20.68
2022-08-24T22:22:22.622Z,20.62
2022-08-24T22:25:24.806Z,20.63
2022-08-24T22:28:27.305Z,20.57
2022-08-24T22:31:31.876Z,20.53
2022-08-24T22:34:36.458Z,20.48
2022-08-24T22:37:38.655Z,20.46
2022-08-24T22:40:43.049Z,20.45
2022-08-24T22:44:04.027Z,20.43
2022-08-24T22:47:13.275Z,20.50
2022-08-24T22:50:17.475Z,20.46
2022-08-24T22:53:19.890Z,20.46
2022-08-24T22:56:28.831Z,20.42
2022-08-24T22:59:36.031Z,20.39
2022-08-24T23:02:38.167Z,20.36
2022-08-24T23:05:40.796Z,20.31
2022-08-24T23:08:43.119Z,20.24
2022-08-24T23:11:46.322Z,20.27
2022-08-24T23:14:50.392Z,20.20
2022-08-24T23:17:52.789Z,20.15
2022-08-24T23:20:55.384Z,20.15
2022-08-24T23:23:58.027Z,20.09
2022-08-24T23:27:02.310Z,20.08
2022-08-24T23:30:06.688Z,20.02
2022-08-24T23:33:09.207Z,20.02
2022-08-24T23:36:15.973Z,19.99
2022-08-24T23:39:21.071Z,19.98
2022-08-24T23:42:23.485Z,19.92
2022-08-24T23:45:28.262Z,19.91
2022-08-24T23:48:31.097Z,19.91
2022-08-24T23:51:33.712Z,19.85
2022-08-24T23:54:37.494Z,19.87
2022-08-24T23:57:39.602Z,19.86
